Airfield :
LOGIN :

Register | Disclaimer

   EN    FR    IT 

 










Legend :    VFR   Marginal VFR   IFR   Intensive IFR   Very Intensive IFR
Visi :
Ceiling :
>= 8 km
>= 3000ft
5 to 8 km
1000 to 3000 ft
1500m to 5 km
500 to 1000 ft
800 to 1500m
200 to 500 ft
< 800m
< 200 ft
Symbols :   Thunderstorms  Fog  Heavy snow  Heavy precipitations  Wind > 20 kt
SIGMETs :     Misc.  Thunderstorms  Icing  Turbulence  Mountain Waves  Volcanic Ashes






- Airport Elevation : 580 ft


LFOA - Avord

CURRENT METAR :
  • 100430Z AUTO 16001KT 7000 NSC M01/M01 Q1029

EXPIRED METARs :
  • 100400Z AUTO 17002KT 9000 NSC M00/M01 Q1029
  • 100330Z AUTO VRB02KT 7000 1100 R24/1600D NSC 01/00 Q1029
  • 100300Z AUTO 26004KT 7000 NSC M00/M01 Q1029
  • 100230Z AUTO 25004KT 9000 NSC M01/M01 Q1029
  • 100200Z AUTO 24006KT CAVOK M00/M01 Q1028

TAF TAF LFOA
Valid from the 09 at 15:00 until the 10 at 15:00 UTC


091400Z 0915/1015 24010G20KT 9999 BKN020
TEMPO 0915/0920 29020G30KT 4000 SHRA BKN020TCU
PROB40
TEMPO 0915/0918 25025G40KT 2000 TSRA SCT010 BKN020CB
FM092300 28003KT 1200 BCFG NSC
PROB30
TEMPO 1004/1008 0600 FZFG VV///
BECMG 1010/1012 4000 BR BKN010
BECMG 1012/1014 CAVOK



MET'MAP, your aeronautical weather chart ! - Copyright ORBIFLY December 2007 - Disclaimer

ORBIFLY MET'MAP TEAM :

Programming & Development : Alexandra Zaïnal
Concept & original design : Baudouin d'Aumeries
Assistance for programming : Marc-Olivier Méhu
Technical & hardware support : Manuel Goepfert

Contact : metmap@orbifly.com




SOURCES & CREDITS :

   NOAA